Time;durP1;ratioP1;P1;durP2;ratioP2;P2;SDS_P1;SDS_P2;PMS_P1;PMS_P2;Temp;Humidity;BMP_temperature;BMP_pressure;BME280_temperature;BME280_humidity;BME280_pressure;Samples;Min_cycle;Max_cycle;Signal;HPM_P1;HPM_P2
2023/07/11 00:00:10;;;;;;;9.05;4.55;;;;;;;;;;5096429;27;20531;-45
2023/07/11 00:02:35;;;;;;;9.05;4.05;;;;;;;;;;5096532;28;20028;-44
2023/07/11 00:05:00;;;;;;;8.75;3.92;;;;;;;;;;5107211;27;20396;-44
2023/07/11 00:07:26;;;;;;;9.50;3.77;;;;;;;;;;5106485;27;20481;-44
2023/07/11 00:09:52;;;;;;;5.47;2.38;;;;;;;;;;5090734;28;20265;-44
2023/07/11 00:12:17;;;;;;;8.10;4.03;;;;;;;;;;5097635;28;20441;-44
2023/07/11 00:14:43;;;;;;;7.68;4.25;;;;;;;;;;5103281;28;20270;-45
2023/07/11 00:17:08;;;;;;;8.75;4.00;;;;;;;;;;5101322;28;20058;-45
2023/07/11 00:19:47;;;;;;;5.97;3.70;;;;;;;;;;5099652;28;20069;-44
2023/07/11 00:22:12;;;;;;;6.22;3.30;;;;;;;;;;5100695;28;20332;-44
2023/07/11 00:24:37;;;;;;;10.07;3.63;;;;;;;;;;5095059;28;20693;-44
2023/07/11 00:27:03;;;;;;;4.77;2.50;;;;;;;;;;5102563;27;20747;-44
2023/07/11 00:29:28;;;;;;;10.52;3.30;;;;;;;;;;5100174;28;20031;-44
2023/07/11 00:31:53;;;;;;;8.87;4.17;;;;;;;;;;5111019;27;20061;-44
2023/07/11 00:34:19;;;;;;;8.10;3.60;;;;;;;;;;5096289;28;20032;-44
2023/07/11 00:36:44;;;;;;;8.50;3.87;;;;;;;;;;5099281;28;20553;-44
2023/07/11 00:39:12;;;;;;;8.23;4.03;;;;;;;;;;5099199;27;20274;-45
2023/07/11 00:41:37;;;;;;;7.35;3.42;;;;;;;;;;5106785;28;20026;-44
2023/07/11 00:44:03;;;;;;;6.37;3.50;;;;;;;;;;5103717;28;20028;-44
2023/07/11 00:46:28;;;;;;;6.90;3.63;;;;;;;;;;5100545;28;22011;-44
2023/07/11 00:48:54;;;;;;;5.15;3.53;;;;;;;;;;5094542;27;20354;-44
2023/07/11 00:51:24;;;;;;;8.00;3.88;;;;;;;;;;5100462;28;20442;-44
2023/07/11 00:53:50;;;;;;;5.43;2.60;;;;;;;;;;5097362;28;20065;-45
2023/07/11 00:56:18;;;;;;;11.98;3.25;;;;;;;;;;5094681;28;20024;-44
2023/07/11 00:58:45;;;;;;;6.25;3.20;;;;;;;;;;5097519;28;20381;-44
2023/07/11 01:01:11;;;;;;;6.25;3.45;;;;;;;;;;5100638;28;20441;-45
2023/07/11 01:03:36;;;;;;;7.07;3.33;;;;;;;;;;5091578;28;20062;-45
2023/07/11 01:06:01;;;;;;;5.72;3.80;;;;;;;;;;5090656;28;20025;-44
2023/07/11 01:08:27;;;;;;;6.87;4.20;;;;;;;;;;5102487;28;20016;-44
2023/07/11 01:10:52;;;;;;;8.88;3.47;;;;;;;;;;5099132;28;20301;-44
2023/07/11 01:13:18;;;;;;;7.10;3.20;;;;;;;;;;5095194;28;20030;-44
2023/07/11 01:15:43;;;;;;;10.68;3.40;;;;;;;;;;5102768;28;20623;-44
2023/07/11 01:18:09;;;;;;;8.30;3.85;;;;;;;;;;5100177;28;20047;-44
2023/07/11 01:20:34;;;;;;;6.72;3.95;;;;;;;;;;5094565;28;20024;-45
2023/07/11 01:22:59;;;;;;;6.90;4.07;;;;;;;;;;5096936;28;20036;-44
2023/07/11 01:25:24;;;;;;;8.07;3.80;;;;;;;;;;5095582;28;20552;-45
2023/07/11 01:27:50;;;;;;;7.10;3.20;;;;;;;;;;5103456;28;20022;-44
2023/07/11 01:30:17;;;;;;;8.68;3.38;;;;;;;;;;5098295;28;20109;-44
2023/07/11 01:32:43;;;;;;;8.43;3.95;;;;;;;;;;5091329;28;20481;-45
2023/07/11 01:35:08;;;;;;;6.05;4.10;;;;;;;;;;5082628;28;20034;-44
2023/07/11 01:37:34;;;;;;;8.85;3.85;;;;;;;;;;5093920;28;20707;-45
2023/07/11 01:39:59;;;;;;;5.77;3.60;;;;;;;;;;5087951;28;20110;-44
2023/07/11 01:42:25;;;;;;;8.90;4.03;;;;;;;;;;5098495;28;20056;-44
2023/07/11 01:44:50;;;;;;;7.55;4.07;;;;;;;;;;5095548;28;21179;-44
2023/07/11 01:47:15;;;;;;;7.77;3.63;;;;;;;;;;5092662;28;20069;-44
2023/07/11 01:49:40;;;;;;;5.97;4.10;;;;;;;;;;5087695;28;20846;-45
2023/07/11 01:52:07;;;;;;;3.70;2.73;;;;;;;;;;5096235;28;20073;-44
2023/07/11 01:54:32;;;;;;;8.18;4.07;;;;;;;;;;5098812;28;20027;-44
2023/07/11 01:56:59;;;;;;;4.72;3.53;;;;;;;;;;5097803;28;20024;-44
2023/07/11 01:59:24;;;;;;;6.55;3.90;;;;;;;;;;5099588;28;20469;-44
2023/07/11 02:01:49;;;;;;;7.73;3.53;;;;;;;;;;5097871;28;20077;-44
2023/07/11 02:04:21;;;;;;;9.10;3.40;;;;;;;;;;5100822;28;20296;-44
2023/07/11 02:06:46;;;;;;;5.32;3.78;;;;;;;;;;5098845;28;20036;-45
2023/07/11 02:09:12;;;;;;;9.10;3.58;;;;;;;;;;5096278;27;20016;-44
2023/07/11 02:11:37;;;;;;;6.10;3.50;;;;;;;;;;5098149;28;20024;-44
2023/07/11 02:14:03;;;;;;;11.82;3.58;;;;;;;;;;5097705;27;20027;-44
2023/07/11 02:16:28;;;;;;;7.90;3.60;;;;;;;;;;5096716;28;20382;-45
2023/07/11 02:18:53;;;;;;;11.13;3.60;;;;;;;;;;5097442;27;20031;-45
2023/07/11 02:21:18;;;;;;;6.87;3.87;;;;;;;;;;5098066;27;20070;-44
2023/07/11 02:23:44;;;;;;;7.57;3.30;;;;;;;;;;5098463;27;20559;-45
2023/07/11 02:26:09;;;;;;;6.30;3.20;;;;;;;;;;5101377;28;20364;-44
2023/07/11 02:28:34;;;;;;;5.90;3.23;;;;;;;;;;5102844;28;20059;-44
2023/07/11 02:30:59;;;;;;;6.60;3.00;;;;;;;;;;5099316;28;20289;-45
2023/07/11 02:33:25;;;;;;;5.27;3.33;;;;;;;;;;5091802;27;20674;-45
2023/07/11 02:35:50;;;;;;;6.37;3.27;;;;;;;;;;5099044;27;20085;-45
2023/07/11 02:38:15;;;;;;;5.30;3.33;;;;;;;;;;5102145;27;20797;-45
2023/07/11 02:40:40;;;;;;;11.07;3.40;;;;;;;;;;5106806;27;20452;-44
2023/07/11 02:43:06;;;;;;;5.07;3.03;;;;;;;;;;5110380;27;20016;-44
2023/07/11 02:45:31;;;;;;;9.82;3.00;;;;;;;;;;5098830;28;20039;-44
2023/07/11 02:47:57;;;;;;;5.23;3.03;;;;;;;;;;5103817;28;20082;-44
2023/07/11 02:50:22;;;;;;;8.60;3.72;;;;;;;;;;5099370;27;20254;-45
2023/07/11 02:52:47;;;;;;;4.93;3.20;;;;;;;;;;5096179;28;20043;-44
2023/07/11 02:55:13;;;;;;;6.25;3.03;;;;;;;;;;5086602;27;20467;-44
2023/07/11 02:57:40;;;;;;;9.67;3.17;;;;;;;;;;5103220;28;20076;-45
2023/07/11 03:00:06;;;;;;;9.65;3.00;;;;;;;;;;5101565;28;20280;-44
2023/07/11 03:02:32;;;;;;;8.77;3.40;;;;;;;;;;5096482;27;20023;-44
2023/07/11 03:04:57;;;;;;;7.07;3.47;;;;;;;;;;5106036;27;20077;-44
2023/07/11 03:07:22;;;;;;;5.88;3.15;;;;;;;;;;5098759;28;20397;-44
2023/07/11 03:09:47;;;;;;;8.40;3.00;;;;;;;;;;5103705;28;20470;-46
2023/07/11 03:12:13;;;;;;;4.40;3.10;;;;;;;;;;5093083;28;20106;-44
2023/07/11 03:14:38;;;;;;;5.37;3.03;;;;;;;;;;5100047;28;20090;-44
2023/07/11 03:17:03;;;;;;;7.07;3.50;;;;;;;;;;5104914;27;20028;-44
2023/07/11 03:19:29;;;;;;;5.60;3.00;;;;;;;;;;5102043;28;20270;-45
2023/07/11 03:21:54;;;;;;;5.82;3.50;;;;;;;;;;5102471;27;20023;-44
2023/07/11 03:24:19;;;;;;;5.53;3.27;;;;;;;;;;5099324;27;20028;-44
2023/07/11 03:26:46;;;;;;;9.40;3.30;;;;;;;;;;5101974;28;20024;-44
2023/07/11 03:29:13;;;;;;;7.13;3.63;;;;;;;;;;5103800;27;20294;-44
2023/07/11 03:31:38;;;;;;;10.02;3.55;;;;;;;;;;5098199;28;20483;-44
2023/07/11 03:34:04;;;;;;;7.83;3.53;;;;;;;;;;5106019;28;20097;-44
2023/07/11 03:36:29;;;;;;;10.17;3.93;;;;;;;;;;5090161;27;20369;-44
2023/07/11 03:38:54;;;;;;;10.13;3.87;;;;;;;;;;5093049;28;20032;-44
2023/07/11 03:41:19;;;;;;;10.83;3.87;;;;;;;;;;5104385;28;20389;-44
2023/07/11 03:43:45;;;;;;;6.90;4.00;;;;;;;;;;5108932;27;20019;-44
2023/07/11 03:46:10;;;;;;;10.90;5.47;;;;;;;;;;5103485;27;20022;-44
2023/07/11 03:48:35;;;;;;;7.30;3.83;;;;;;;;;;5107050;28;20031;-44
2023/07/11 03:51:01;;;;;;;5.87;4.23;;;;;;;;;;5100865;28;20677;-44
2023/07/11 03:53:26;;;;;;;6.40;3.88;;;;;;;;;;5095963;27;20266;-44
2023/07/11 03:55:51;;;;;;;6.03;4.20;;;;;;;;;;5102488;27;20024;-44
2023/07/11 03:58:16;;;;;;;6.27;4.10;;;;;;;;;;5097734;27;20034;-45
2023/07/11 04:00:42;;;;;;;8.23;4.47;;;;;;;;;;5100360;27;20071;-44
2023/07/11 04:03:07;;;;;;;7.07;3.23;;;;;;;;;;5104611;28;20755;-44
2023/07/11 04:05:32;;;;;;;5.50;3.63;;;;;;;;;;5100859;27;20030;-44
2023/07/11 04:07:58;;;;;;;7.97;3.80;;;;;;;;;;5095246;27;20307;-44
2023/07/11 04:10:23;;;;;;;9.40;4.32;;;;;;;;;;5100816;28;20301;-44
2023/07/11 04:12:50;;;;;;;9.40;4.18;;;;;;;;;;5083501;28;20023;-44
2023/07/11 04:15:15;;;;;;;8.43;4.20;;;;;;;;;;5099631;28;20520;-44
2023/07/11 04:17:41;;;;;;;7.38;4.05;;;;;;;;;;5099479;28;20023;-44
2023/07/11 04:20:06;;;;;;;10.10;4.53;;;;;;;;;;5103079;28;20055;-44
2023/07/11 04:22:32;;;;;;;8.95;4.93;;;;;;;;;;5101937;28;20596;-44
2023/07/11 04:24:57;;;;;;;7.83;4.47;;;;;;;;;;5100721;27;20046;-44
2023/07/11 04:27:23;;;;;;;7.50;4.50;;;;;;;;;;5096719;27;20272;-44
2023/07/11 04:29:48;;;;;;;8.95;4.40;;;;;;;;;;5105968;27;20314;-44
2023/07/11 04:32:14;;;;;;;12.10;6.27;;;;;;;;;;5104704;27;20386;-44
2023/07/11 04:34:40;;;;;;;8.97;4.57;;;;;;;;;;5095254;28;20042;-45
2023/07/11 04:37:06;;;;;;;9.55;4.60;;;;;;;;;;5100660;27;20294;-44
2023/07/11 04:39:31;;;;;;;10.48;5.20;;;;;;;;;;5095457;28;20022;-44
2023/07/11 04:41:56;;;;;;;7.43;4.60;;;;;;;;;;5098075;28;20031;-44
2023/07/11 04:44:21;;;;;;;4.77;2.67;;;;;;;;;;5096087;28;20051;-45
2023/07/11 04:46:47;;;;;;;9.10;4.37;;;;;;;;;;5101890;28;20277;-44
2023/07/11 04:49:12;;;;;;;6.82;3.97;;;;;;;;;;5091417;28;20274;-44
2023/07/11 04:51:37;;;;;;;8.85;4.03;;;;;;;;;;5099022;28;20058;-44
2023/07/11 04:54:02;;;;;;;7.07;4.40;;;;;;;;;;5102311;28;20032;-45
2023/07/11 04:56:28;;;;;;;7.67;4.53;;;;;;;;;;5107900;27;20601;-44
2023/07/11 04:58:53;;;;;;;14.47;5.90;;;;;;;;;;5101779;28;20266;-44
2023/07/11 05:01:18;;;;;;;8.77;4.43;;;;;;;;;;5088675;28;20285;-45
2023/07/11 05:03:46;;;;;;;5.40;4.13;;;;;;;;;;5103273;28;20066;-44
2023/07/11 05:06:12;;;;;;;8.15;4.75;;;;;;;;;;5101544;27;20023;-44
2023/07/11 05:08:38;;;;;;;9.73;5.38;;;;;;;;;;5096965;27;20077;-44
2023/07/11 05:11:12;;;;;;;12.90;7.50;;;;;;;;;;5101887;28;20042;-44
2023/07/11 05:13:38;;;;;;;9.07;5.25;;;;;;;;;;5103268;28;20023;-45
2023/07/11 05:16:08;;;;;;;8.43;4.75;;;;;;;;;;5082396;28;20850;-45
2023/07/11 05:18:34;;;;;;;9.18;4.68;;;;;;;;;;5090032;28;20024;-45
2023/07/11 05:21:00;;;;;;;7.68;4.45;;;;;;;;;;5093458;28;20072;-45
2023/07/11 05:23:26;;;;;;;8.45;3.90;;;;;;;;;;5090142;28;20024;-44
2023/07/11 05:25:52;;;;;;;9.18;4.15;;;;;;;;;;5096839;28;20054;-44
2023/07/11 05:28:17;;;;;;;6.82;4.10;;;;;;;;;;5094759;28;20444;-44
2023/07/11 05:30:43;;;;;;;8.55;4.55;;;;;;;;;;5096950;28;20020;-45
2023/07/11 05:33:08;;;;;;;10.90;4.30;;;;;;;;;;5095769;28;20024;-45
2023/07/11 05:38:32;;;;;;;16.30;6.65;;;;;;;;;;5100546;27;20103;-44
2023/07/11 05:40:57;;;;;;;14.10;5.95;;;;;;;;;;5099964;27;20043;-44
2023/07/11 05:43:23;;;;;;;11.85;4.68;;;;;;;;;;5099116;28;20027;-44
2023/07/11 05:45:48;;;;;;;9.77;4.57;;;;;;;;;;5107803;28;20153;-44
2023/07/11 05:48:13;;;;;;;17.23;8.33;;;;;;;;;;5102811;27;20281;-44
2023/07/11 05:50:38;;;;;;;9.07;4.80;;;;;;;;;;5105412;28;20046;-44
2023/07/11 05:53:04;;;;;;;15.53;5.67;;;;;;;;;;5101215;28;20262;-44
2023/07/11 05:55:29;;;;;;;12.90;4.90;;;;;;;;;;5103662;28;20024;-44
2023/07/11 05:57:54;;;;;;;8.67;4.50;;;;;;;;;;5093506;28;20132;-44
2023/07/11 06:00:20;;;;;;;10.50;4.13;;;;;;;;;;5092600;27;20030;-45
2023/07/11 06:02:45;;;;;;;10.20;4.43;;;;;;;;;;5098101;28;20330;-44
2023/07/11 06:05:10;;;;;;;9.40;4.33;;;;;;;;;;5098921;27;20035;-45
2023/07/11 06:07:36;;;;;;;11.38;4.82;;;;;;;;;;5100119;28;20265;-45
2023/07/11 06:10:01;;;;;;;9.53;3.83;;;;;;;;;;5101279;28;20028;-45
2023/07/11 06:12:26;;;;;;;7.65;4.05;;;;;;;;;;5090770;28;20486;-44
2023/07/11 06:14:52;;;;;;;8.63;3.87;;;;;;;;;;5079413;28;20517;-44
2023/07/11 06:17:17;;;;;;;8.05;3.92;;;;;;;;;;5098524;27;20032;-44
2023/07/11 06:19:43;;;;;;;8.75;4.00;;;;;;;;;;5088549;28;20032;-45
2023/07/11 06:22:08;;;;;;;8.67;4.67;;;;;;;;;;5093315;27;20065;-45
2023/07/11 06:24:33;;;;;;;11.88;5.07;;;;;;;;;;5103027;27;20638;-45
2023/07/11 06:26:59;;;;;;;7.87;3.70;;;;;;;;;;5098127;28;20508;-45
2023/07/11 06:29:25;;;;;;;9.20;4.57;;;;;;;;;;5096254;28;20020;-44
2023/07/11 06:31:50;;;;;;;10.13;4.88;;;;;;;;;;5089855;28;20024;-44
2023/07/11 06:34:15;;;;;;;6.63;3.53;;;;;;;;;;5092445;27;20035;-44
2023/07/11 06:36:40;;;;;;;6.13;3.60;;;;;;;;;;5089253;27;20490;-44
2023/07/11 06:39:06;;;;;;;10.03;3.63;;;;;;;;;;5090547;28;20024;-45
2023/07/11 06:41:32;;;;;;;7.90;3.80;;;;;;;;;;5097113;27;20127;-45
2023/07/11 06:43:57;;;;;;;7.82;2.70;;;;;;;;;;5099725;28;20490;-45
2023/07/11 06:46:22;;;;;;;8.17;2.93;;;;;;;;;;5093908;27;20035;-45
2023/07/11 06:48:48;;;;;;;6.38;2.63;;;;;;;;;;5097140;27;20027;-45
2023/07/11 06:51:13;;;;;;;7.67;3.33;;;;;;;;;;5096191;28;20483;-44
2023/07/11 06:53:38;;;;;;;9.27;2.88;;;;;;;;;;5098234;28;20266;-44
2023/07/11 06:56:04;;;;;;;8.07;2.38;;;;;;;;;;5103700;27;20023;-45
2023/07/11 06:58:29;;;;;;;9.15;2.58;;;;;;;;;;5095834;28;20027;-45
2023/07/11 07:00:56;;;;;;;3.80;2.05;;;;;;;;;;5094453;27;20471;-44
2023/07/11 07:03:22;;;;;;;8.27;2.97;;;;;;;;;;5103228;28;20066;-45
2023/07/11 07:05:51;;;;;;;7.22;2.65;;;;;;;;;;5095020;28;20023;-44
2023/07/11 07:08:17;;;;;;;11.30;2.78;;;;;;;;;;5100234;28;20035;-44
2023/07/11 07:10:44;;;;;;;5.82;2.15;;;;;;;;;;5098020;28;21207;-44
2023/07/11 07:13:09;;;;;;;5.75;2.78;;;;;;;;;;5094213;28;20491;-45
2023/07/11 07:15:35;;;;;;;11.50;2.60;;;;;;;;;;5094494;27;20773;-44
2023/07/11 07:18:00;;;;;;;7.80;2.93;;;;;;;;;;5099627;28;20055;-45
2023/07/11 07:20:25;;;;;;;9.57;2.20;;;;;;;;;;5090749;27;20023;-44
2023/07/11 07:22:50;;;;;;;5.30;2.50;;;;;;;;;;5090589;28;20020;-45
2023/07/11 07:25:16;;;;;;;5.80;2.07;;;;;;;;;;5096583;27;20100;-45
2023/07/11 07:27:41;;;;;;;13.13;2.60;;;;;;;;;;5097166;27;20020;-45
2023/07/11 07:30:08;;;;;;;12.85;2.33;;;;;;;;;;5090408;28;20035;-45
2023/07/11 07:32:33;;;;;;;5.03;2.35;;;;;;;;;;5101126;27;20495;-45
2023/07/11 07:34:58;;;;;;;10.60;2.42;;;;;;;;;;5093953;28;20084;-44
2023/07/11 07:37:24;;;;;;;7.77;2.70;;;;;;;;;;5094654;27;20802;-45
2023/07/11 07:39:49;;;;;;;3.20;1.50;;;;;;;;;;5086651;27;20048;-45
2023/07/11 07:42:16;;;;;;;6.78;2.30;;;;;;;;;;5099409;28;20035;-45
2023/07/11 07:44:41;;;;;;;4.90;1.65;;;;;;;;;;5093611;28;20081;-45
2023/07/11 07:47:07;;;;;;;8.20;1.58;;;;;;;;;;5099251;28;20019;-44
2023/07/11 07:49:32;;;;;;;4.15;1.58;;;;;;;;;;5097905;28;20047;-44
2023/07/11 07:51:57;;;;;;;8.37;2.03;;;;;;;;;;5093927;28;20398;-45
2023/07/11 07:54:22;;;;;;;7.90;2.47;;;;;;;;;;5097391;28;20284;-45
2023/07/11 07:56:47;;;;;;;7.60;1.90;;;;;;;;;;5092010;28;20481;-45
2023/07/11 07:59:13;;;;;;;6.37;2.03;;;;;;;;;;5091889;28;20027;-45
2023/07/11 08:01:38;;;;;;;7.45;1.92;;;;;;;;;;5090642;27;20035;-45
2023/07/11 08:04:03;;;;;;;7.40;1.80;;;;;;;;;;5094350;27;20670;-45
2023/07/11 08:06:29;;;;;;;2.13;1.40;;;;;;;;;;5094070;28;20020;-44
2023/07/11 08:08:54;;;;;;;6.67;1.70;;;;;;;;;;5095616;28;20016;-45
2023/07/11 08:11:21;;;;;;;3.67;1.50;;;;;;;;;;5093734;28;20377;-45
2023/07/11 08:13:46;;;;;;;2.53;0.80;;;;;;;;;;5093235;27;20305;-45
2023/07/11 08:16:12;;;;;;;3.00;1.15;;;;;;;;;;5098827;28;20539;-45
2023/07/11 08:18:37;;;;;;;7.25;1.75;;;;;;;;;;5093574;28;20462;-45
2023/07/11 08:21:02;;;;;;;4.43;1.20;;;;;;;;;;5092548;28;20030;-45
2023/07/11 08:23:28;;;;;;;6.67;1.37;;;;;;;;;;5101826;28;20367;-45
2023/07/11 08:25:54;;;;;;;3.88;1.40;;;;;;;;;;5086491;28;20034;-45
2023/07/11 08:28:19;;;;;;;6.18;1.58;;;;;;;;;;5101443;28;20031;-45
2023/07/11 08:30:45;;;;;;;6.57;2.50;;;;;;;;;;5085613;28;20036;-45
2023/07/11 08:33:10;;;;;;;5.97;2.10;;;;;;;;;;5098094;28;20799;-44
2023/07/11 08:35:35;;;;;;;5.60;2.00;;;;;;;;;;5102149;28;20284;-45
2023/07/11 08:38:03;;;;;;;5.43;2.07;;;;;;;;;;5090565;28;20771;-44
2023/07/11 08:40:33;;;;;;;9.93;2.20;;;;;;;;;;5097205;27;20020;-44
2023/07/11 08:43:03;;;;;;;4.75;2.03;;;;;;;;;;5087161;28;20043;-45
2023/07/11 08:45:31;;;;;;;6.22;2.25;;;;;;;;;;5100564;27;20054;-45
2023/07/11 08:47:59;;;;;;;4.47;1.60;;;;;;;;;;5087874;28;20076;-44
2023/07/11 08:50:31;;;;;;;8.23;2.42;;;;;;;;;;5095068;27;20444;-45
2023/07/11 08:53:22;;;;;;;4.90;1.40;;;;;;;;;;5093963;28;20126;-45
2023/07/11 08:55:49;;;;;;;6.10;1.90;;;;;;;;;;5096333;28;20107;-44
2023/07/11 08:58:15;;;;;;;5.22;1.40;;;;;;;;;;5098310;28;20436;-44
2023/07/11 09:00:42;;;;;;;4.85;1.05;;;;;;;;;;5097333;28;20018;-45
2023/07/11 09:03:10;;;;;;;3.63;1.20;;;;;;;;;;5093934;28;20108;-45
2023/07/11 09:05:40;;;;;;;4.88;1.70;;;;;;;;;;5079461;28;20028;-45
2023/07/11 09:08:11;;;;;;;6.57;1.85;;;;;;;;;;5084629;28;20072;-45
2023/07/11 09:10:48;;;;;;;4.82;1.88;;;;;;;;;;5090295;28;20011;-44
2023/07/11 09:13:36;;;;;;;6.72;1.77;;;;;;;;;;5095118;28;20024;-45
2023/07/11 09:16:05;;;;;;;4.68;1.15;;;;;;;;;;5093811;28;20421;-44
2023/07/11 09:18:39;;;;;;;2.63;1.00;;;;;;;;;;5102759;28;20043;-44
2023/07/11 09:21:14;;;;;;;2.28;1.10;;;;;;;;;;5099171;28;20023;-45
2023/07/11 09:23:58;;;;;;;4.60;1.30;;;;;;;;;;5096724;28;20020;-44
2023/07/11 09:26:25;;;;;;;3.80;1.50;;;;;;;;;;5099490;28;20494;-45
2023/07/11 09:28:53;;;;;;;6.00;2.22;;;;;;;;;;5104003;28;20066;-45
2023/07/11 09:31:19;;;;;;;6.15;1.20;;;;;;;;;;5101117;27;20027;-45
2023/07/11 09:33:52;;;;;;;3.78;1.40;;;;;;;;;;5092103;28;20377;-45
2023/07/11 09:36:22;;;;;;;6.85;1.42;;;;;;;;;;5098535;28;20016;-45
2023/07/11 09:39:00;;;;;;;4.75;1.15;;;;;;;;;;5101122;28;20016;-45
2023/07/11 09:41:29;;;;;;;3.97;1.00;;;;;;;;;;5088965;28;20078;-45
2023/07/11 09:43:54;;;;;;;5.53;1.35;;;;;;;;;;5099815;28;20067;-45
2023/07/11 09:46:21;;;;;;;6.82;1.60;;;;;;;;;;5088621;28;20024;-44
2023/07/11 09:48:48;;;;;;;6.10;1.45;;;;;;;;;;5089323;28;20069;-45
2023/07/11 09:51:36;;;;;;;3.97;1.77;;;;;;;;;;5097324;28;20060;-45
2023/07/11 09:54:02;;;;;;;5.75;1.00;;;;;;;;;;5100628;28;20019;-45
2023/07/11 09:56:28;;;;;;;3.95;1.85;;;;;;;;;;5091103;28;20012;-44
2023/07/11 09:58:57;;;;;;;4.77;1.30;;;;;;;;;;5088976;28;20039;-44
2023/07/11 10:01:26;;;;;;;4.18;1.45;;;;;;;;;;5093631;28;20308;-45
2023/07/11 10:03:53;;;;;;;4.20;1.35;;;;;;;;;;5096779;28;20399;-45
2023/07/11 10:06:28;;;;;;;2.90;1.05;;;;;;;;;;5085542;28;20474;-45
2023/07/11 10:08:53;;;;;;;6.47;1.38;;;;;;;;;;5090981;28;20032;-45
2023/07/11 10:11:21;;;;;;;5.87;1.60;;;;;;;;;;5086445;28;20035;-45
2023/07/11 10:13:46;;;;;;;4.68;1.50;;;;;;;;;;5083698;28;20261;-45
2023/07/11 10:16:17;;;;;;;2.97;1.20;;;;;;;;;;5093631;28;20100;-45
2023/07/11 10:18:43;;;;;;;3.92;1.38;;;;;;;;;;5093299;28;20262;-45
2023/07/11 10:21:25;;;;;;;5.57;1.77;;;;;;;;;;5097522;28;20020;-45
2023/07/11 10:23:51;;;;;;;7.43;1.73;;;;;;;;;;5097389;28;20106;-45
2023/07/11 10:26:21;;;;;;;3.08;1.42;;;;;;;;;;5092073;27;20111;-45
2023/07/11 10:29:10;;;;;;;11.57;1.88;;;;;;;;;;5096213;28;20115;-45
2023/07/11 10:31:43;;;;;;;3.28;1.48;;;;;;;;;;5099731;27;20582;-45
2023/07/11 10:34:19;;;;;;;3.45;1.40;;;;;;;;;;5102934;28;20416;-44
2023/07/11 10:36:54;;;;;;;5.18;1.17;;;;;;;;;;5100753;27;20081;-45
2023/07/11 10:39:19;;;;;;;6.20;1.70;;;;;;;;;;5099366;27;20018;-45
2023/07/11 10:42:03;;;;;;;6.63;1.30;;;;;;;;;;5100264;27;20019;-45
2023/07/11 10:44:32;;;;;;;5.43;1.40;;;;;;;;;;5080983;28;20035;-45
2023/07/11 10:46:58;;;;;;;7.78;1.80;;;;;;;;;;5095574;28;20098;-45
2023/07/11 10:49:26;;;;;;;5.00;1.83;;;;;;;;;;5085233;27;20028;-45
2023/07/11 10:51:55;;;;;;;3.45;0.95;;;;;;;;;;5091402;27;20019;-45
2023/07/11 10:54:42;;;;;;;4.75;1.35;;;;;;;;;;5095278;27;20027;-44
2023/07/11 10:57:15;;;;;;;4.47;1.63;;;;;;;;;;5089770;27;20024;-45
2023/07/11 10:59:41;;;;;;;5.50;1.52;;;;;;;;;;5085197;28;20066;-45
2023/07/11 11:02:15;;;;;;;3.30;1.63;;;;;;;;;;5086577;27;20032;-45
2023/07/11 11:04:43;;;;;;;4.55;1.38;;;;;;;;;;5075806;27;20494;-45
2023/07/11 11:07:26;;;;;;;6.88;2.72;;;;;;;;;;5081903;28;20046;-45
2023/07/11 11:10:09;;;;;;;7.57;1.77;;;;;;;;;;5076918;27;20028;-45
2023/07/11 11:12:37;;;;;;;3.55;1.15;;;;;;;;;;5080640;28;21283;-45
2023/07/11 11:15:15;;;;;;;4.25;1.38;;;;;;;;;;5082827;28;20457;-45
2023/07/11 11:17:40;;;;;;;9.88;1.58;;;;;;;;;;5096375;28;20130;-45
2023/07/11 11:20:11;;;;;;;8.77;2.97;;;;;;;;;;5089159;27;20084;-45
2023/07/11 11:22:44;;;;;;;4.78;1.33;;;;;;;;;;5095246;27;20020;-45
2023/07/11 11:25:21;;;;;;;3.80;1.52;;;;;;;;;;5089767;28;20032;-45
2023/07/11 11:27:56;;;;;;;3.95;1.67;;;;;;;;;;5094533;28;20027;-45
2023/07/11 11:30:30;;;;;;;7.32;3.05;;;;;;;;;;5095431;28;20020;-44
2023/07/11 11:32:58;;;;;;;5.60;1.70;;;;;;;;;;5087372;28;20080;-44
2023/07/11 11:35:23;;;;;;;2.75;1.17;;;;;;;;;;5097580;28;20385;-45
2023/07/11 11:37:56;;;;;;;4.77;1.50;;;;;;;;;;5096004;27;20034;-45
2023/07/11 11:40:23;;;;;;;4.18;1.25;;;;;;;;;;5087591;28;20016;-45
2023/07/11 11:42:52;;;;;;;4.57;1.75;;;;;;;;;;5090499;27;20035;-45
2023/07/11 11:45:21;;;;;;;4.38;1.30;;;;;;;;;;5094217;27;20020;-45
2023/07/11 11:47:48;;;;;;;4.38;1.55;;;;;;;;;;5099856;27;20431;-45
2023/07/11 11:50:17;;;;;;;3.60;1.40;;;;;;;;;;5086629;28;20062;-45
2023/07/11 11:52:44;;;;;;;3.55;1.50;;;;;;;;;;5091506;28;20107;-45
2023/07/11 11:55:35;;;;;;;4.80;1.20;;;;;;;;;;5097685;28;20110;-45
2023/07/11 11:58:00;;;;;;;2.77;1.20;;;;;;;;;;5091067;28;20047;-45
2023/07/11 12:00:46;;;;;;;6.75;2.17;;;;;;;;;;5096737;28;20063;-44
2023/07/11 12:03:34;;;;;;;3.60;1.20;;;;;;;;;;5073524;28;20080;-45
2023/07/11 12:06:01;;;;;;;4.40;1.27;;;;;;;;;;5096878;28;20092;-44
2023/07/11 12:08:27;;;;;;;3.10;1.35;;;;;;;;;;5090588;28;20598;-45
2023/07/11 12:11:15;;;;;;;6.38;1.92;;;;;;;;;;5088419;28;20020;-45
2023/07/11 12:13:42;;;;;;;4.45;2.00;;;;;;;;;;5097503;28;20081;-45
2023/07/11 12:16:17;;;;;;;5.22;1.60;;;;;;;;;;5102209;27;20374;-45
2023/07/11 12:18:58;;;;;;;5.95;1.42;;;;;;;;;;5094976;28;20016;-45
2023/07/11 12:21:29;;;;;;;5.68;1.42;;;;;;;;;;5088248;27;20051;-45
2023/07/11 12:24:14;;;;;;;3.83;1.05;;;;;;;;;;5098893;28;20024;-45
2023/07/11 12:26:40;;;;;;;4.07;1.45;;;;;;;;;;5097712;27;20020;-45
2023/07/11 12:29:23;;;;;;;2.60;1.00;;;;;;;;;;5086478;27;20047;-45
2023/07/11 12:32:08;;;;;;;2.03;0.60;;;;;;;;;;5098891;28;20428;-45
2023/07/11 12:34:34;;;;;;;3.97;1.67;;;;;;;;;;5087136;28;20093;-45
2023/07/11 12:37:00;;;;;;;3.03;1.30;;;;;;;;;;5094558;28;20479;-45
2023/07/11 12:39:44;;;;;;;8.48;1.50;;;;;;;;;;5093696;28;20024;-45
2023/07/11 12:42:15;;;;;;;2.97;1.10;;;;;;;;;;5093249;28;20023;-45
2023/07/11 12:44:40;;;;;;;;;;;;;;;;;;5089959;28;20030;-45
2023/07/11 12:47:11;;;;;;;2.42;1.08;;;;;;;;;;5096520;28;19908;-45
2023/07/11 12:49:39;;;;;;;3.05;1.38;;;;;;;;;;5087915;28;20015;-45
2023/07/11 12:52:15;;;;;;;3.08;1.45;;;;;;;;;;5094234;28;20035;-45
2023/07/11 12:54:41;;;;;;;3.30;1.70;;;;;;;;;;5094838;28;20027;-45
2023/07/11 12:57:11;;;;;;;4.18;1.48;;;;;;;;;;5098238;28;20095;-45
2023/07/11 12:59:39;;;;;;;4.00;1.60;;;;;;;;;;5095228;27;20031;-46
2023/07/11 13:02:04;;;;;;;6.07;4.22;;;;;;;;;;5095263;28;20028;-45
2023/07/11 13:04:53;;;;;;;7.47;1.95;;;;;;;;;;5084238;28;20024;-45
2023/07/11 13:07:25;;;;;;;3.05;1.10;;;;;;;;;;5087989;28;20051;-45
2023/07/11 13:09:59;;;;;;;2.97;1.40;;;;;;;;;;5081406;28;20015;-46
2023/07/11 13:12:25;;;;;;;3.55;1.45;;;;;;;;;;5076429;28;20023;-45
2023/07/11 13:14:51;;;;;;;5.38;1.90;;;;;;;;;;5084769;28;20477;-45
2023/07/11 13:17:20;;;;;;;3.97;1.40;;;;;;;;;;5094379;28;20482;-45
2023/07/11 13:19:45;;;;;;;3.88;1.30;;;;;;;;;;5090271;28;20639;-45
2023/07/11 13:22:18;;;;;;;15.55;9.63;;;;;;;;;;5094339;28;20107;-45
2023/07/11 13:24:44;;;;;;;7.28;2.20;;;;;;;;;;5094352;28;20032;-45
2023/07/11 13:27:14;;;;;;;4.13;1.60;;;;;;;;;;5093450;28;20012;-45
2023/07/11 13:29:41;;;;;;;3.22;1.75;;;;;;;;;;5082329;28;20031;-45
2023/07/11 13:32:11;;;;;;;5.40;1.50;;;;;;;;;;5082336;28;20008;-45
2023/07/11 13:34:37;;;;;;;4.45;1.95;;;;;;;;;;5085861;28;20030;-45
2023/07/11 13:37:06;;;;;;;3.33;1.50;;;;;;;;;;5073433;28;20762;-45
2023/07/11 13:39:43;;;;;;;3.45;1.40;;;;;;;;;;5083332;28;20082;-45
2023/07/11 13:42:09;;;;;;;3.63;2.20;;;;;;;;;;5078016;28;20143;-45
2023/07/11 13:44:47;;;;;;;3.30;1.60;;;;;;;;;;5088253;28;20068;-45
2023/07/11 13:47:23;;;;;;;5.13;1.58;;;;;;;;;;5088796;28;20394;-45
2023/07/11 13:49:56;;;;;;;4.15;2.00;;;;;;;;;;5090500;28;20022;-45
2023/07/11 13:52:27;;;;;;;6.68;3.17;;;;;;;;;;5088897;28;20461;-45
2023/07/11 13:54:55;;;;;;;3.47;1.67;;;;;;;;;;5097053;28;20586;-45
2023/07/11 13:57:20;;;;;;;6.22;2.05;;;;;;;;;;5095486;28;20063;-46
2023/07/11 13:59:45;;;;;;;4.90;1.70;;;;;;;;;;5089941;28;20102;-45
2023/07/11 14:02:15;;;;;;;5.47;1.90;;;;;;;;;;5087629;27;20443;-46
2023/07/11 14:04:40;;;;;;;5.72;1.75;;;;;;;;;;5095799;28;20031;-45
2023/07/11 14:07:08;;;;;;;4.00;1.70;;;;;;;;;;5094860;27;20038;-45
2023/07/11 14:09:33;;;;;;;6.72;2.03;;;;;;;;;;5098793;27;20122;-45
2023/07/11 14:11:58;;;;;;;4.23;1.27;;;;;;;;;;5098654;27;20474;-46
2023/07/11 14:14:25;;;;;;;3.73;1.90;;;;;;;;;;5092723;27;20032;-46
2023/07/11 14:16:50;;;;;;;5.47;1.70;;;;;;;;;;5095459;28;20024;-45
2023/07/11 14:19:15;;;;;;;3.57;1.50;;;;;;;;;;5086550;27;20407;-45
2023/07/11 14:21:41;;;;;;;4.37;1.43;;;;;;;;;;5101409;27;20023;-46
2023/07/11 14:24:12;;;;;;;4.73;1.50;;;;;;;;;;5105044;27;20035;-45
2023/07/11 14:26:37;;;;;;;2.92;1.77;;;;;;;;;;5100025;28;20508;-45
2023/07/11 14:29:04;;;;;;;5.13;1.80;;;;;;;;;;5100135;28;20031;-46
2023/07/11 14:31:30;;;;;;;4.40;2.42;;;;;;;;;;5098137;28;20027;-46
2023/07/11 14:33:55;;;;;;;3.20;1.40;;;;;;;;;;5099449;27;20023;-46
2023/07/11 14:36:20;;;;;;;5.82;2.70;;;;;;;;;;5093162;28;20073;-45
2023/07/11 14:38:45;;;;;;;4.77;2.17;;;;;;;;;;5090518;28;20023;-46
2023/07/11 14:41:11;;;;;;;6.20;1.73;;;;;;;;;;5102381;28;20058;-45
2023/07/11 14:43:36;;;;;;;5.88;2.03;;;;;;;;;;5104788;28;20023;-45
2023/07/11 14:46:02;;;;;;;19.80;12.23;;;;;;;;;;5088085;27;20028;-46